Time;durP1;ratioP1;P1;durP2;ratioP2;P2;SDS_P1;SDS_P2;PMS_P1;PMS_P2;Temp;Humidity;BMP_temperature;BMP_pressure;BME280_temperature;BME280_humidity;BME280_pressure;Samples;Min_cycle;Max_cycle;Signal;HPM_P1;HPM_P2
2023/08/12 00:01:21;;;;;;;1999.90;999.90;;;;;;;18.67;100.00;95518.38;5006864;28;20207;-60
2023/08/12 00:03:46;;;;;;;1999.90;999.90;;;;;;;18.68;100.00;95508.84;5006649;28;20260;-60
2023/08/12 00:06:12;;;;;;;1999.90;999.90;;;;;;;18.66;100.00;95505.78;5006917;28;20195;-60
2023/08/12 00:08:37;;;;;;;1999.90;999.90;;;;;;;18.62;100.00;95496.84;5006809;28;20195;-61
2023/08/12 00:11:02;;;;;;;1999.90;999.90;;;;;;;18.65;100.00;95490.41;5006586;28;20202;-61
2023/08/12 00:13:28;;;;;;;1999.90;999.90;;;;;;;18.66;100.00;95489.19;5006594;28;20222;-61
2023/08/12 00:15:53;;;;;;;1999.90;999.90;;;;;;;18.65;100.00;95482.88;5006841;28;20275;-61
2023/08/12 00:18:19;;;;;;;1999.90;999.90;;;;;;;18.60;100.00;95485.44;5006656;28;20187;-61
2023/08/12 00:20:44;;;;;;;1999.90;999.90;;;;;;;18.60;100.00;95471.63;5006435;28;20245;-61
2023/08/12 00:23:09;;;;;;;1999.90;999.90;;;;;;;18.57;100.00;95467.75;5006756;28;20223;-61
2023/08/12 00:25:35;;;;;;;1999.90;999.90;;;;;;;18.54;100.00;95460.38;5006831;28;20242;-62
2023/08/12 00:28:00;;;;;;;1999.90;999.90;;;;;;;18.51;100.00;95447.44;5006680;28;20206;-61
2023/08/12 00:30:25;;;;;;;1999.90;999.90;;;;;;;18.45;100.00;95435.44;5006279;28;20202;-62
2023/08/12 00:32:51;;;;;;;1999.90;999.90;;;;;;;18.41;100.00;95422.94;5006222;28;20220;-61
2023/08/12 00:35:16;;;;;;;1999.90;999.90;;;;;;;18.39;100.00;95392.22;5006380;28;20263;-61
2023/08/12 00:37:41;;;;;;;1999.90;999.90;;;;;;;18.34;100.00;95373.41;5006015;28;20199;-61
2023/08/12 00:40:07;;;;;;;1999.90;999.90;;;;;;;18.30;100.00;95348.69;5006239;28;20195;-61
2023/08/12 00:42:33;;;;;;;1999.90;999.90;;;;;;;18.25;100.00;95323.63;5005934;28;20192;-61
2023/08/12 00:44:58;;;;;;;1999.90;999.90;;;;;;;18.12;100.00;95295.28;5005895;28;20187;-61
2023/08/12 00:47:24;;;;;;;1999.90;999.90;;;;;;;18.11;100.00;95244.00;5006001;28;20198;-60
2023/08/12 00:49:50;;;;;;;1999.90;999.90;;;;;;;18.06;100.00;95203.88;5006139;28;20188;-61
2023/08/12 00:52:17;;;;;;;1999.90;999.90;;;;;;;18.03;100.00;95166.09;5006352;28;20203;-60
2023/08/12 00:54:43;;;;;;;1999.90;999.90;;;;;;;18.01;100.00;95124.34;5005648;28;20183;-61
2023/08/12 00:57:09;;;;;;;1999.90;999.90;;;;;;;18.03;100.00;95065.84;5006276;28;20199;-60
2023/08/12 00:59:36;;;;;;;1999.90;999.90;;;;;;;18.02;100.00;95033.91;5006203;28;20188;-61
2023/08/12 01:02:04;;;;;;;1999.90;999.90;;;;;;;18.03;100.00;95027.16;5005226;28;20210;-60
2023/08/12 01:04:29;;;;;;;1999.90;999.90;;;;;;;18.02;100.00;95009.03;5005544;28;20199;-60
2023/08/12 01:06:54;;;;;;;1999.90;999.90;;;;;;;17.99;100.00;94998.91;5005561;28;20192;-61
2023/08/12 01:09:20;;;;;;;1999.90;999.90;;;;;;;17.99;100.00;94993.38;5005854;28;20511;-60
2023/08/12 01:11:57;;;;;;;1999.90;999.90;;;;;;;17.98;100.00;94975.25;5005541;28;20195;-61
2023/08/12 01:14:45;;;;;;;1999.90;999.90;;;;;;;17.96;100.00;94950.09;5005931;28;20278;-61
2023/08/12 01:17:12;;;;;;;1999.90;999.90;;;;;;;17.97;100.00;94940.56;5005593;28;20251;-61
2023/08/12 01:19:38;;;;;;;1999.90;999.90;;;;;;;17.94;100.00;94935.94;5005816;28;20172;-61
2023/08/12 01:22:07;;;;;;;1999.90;999.90;;;;;;;17.92;100.00;94927.38;5005907;28;20255;-61
2023/08/12 01:24:38;;;;;;;1999.90;999.90;;;;;;;17.89;100.00;94917.25;5005094;28;20188;-61
2023/08/12 01:27:04;;;;;;;1999.90;999.90;;;;;;;17.87;100.00;94908.63;5005595;28;20195;-60
2023/08/12 01:29:31;;;;;;;1999.90;999.90;;;;;;;17.85;100.00;94900.06;5005106;28;20192;-61
2023/08/12 01:32:21;;;;;;;1999.90;999.90;;;;;;;17.78;100.00;94894.84;5004955;28;20199;-60
2023/08/12 01:35:44;;;;;;;1999.90;999.90;;;;;;;17.71;100.00;94878.56;5005230;28;20219;-61
2023/08/12 01:38:10;;;;;;;1999.90;999.90;;;;;;;17.69;100.00;94858.91;4949648;29;20201;-61
2023/08/12 01:40:38;;;;;;;1999.90;999.90;;;;;;;17.66;100.00;94848.81;4949651;29;20197;-63
2023/08/12 01:43:04;;;;;;;1999.90;999.90;;;;;;;17.65;100.00;94841.75;4989556;28;20222;-60
2023/08/12 01:45:33;;;;;;;1999.90;999.90;;;;;;;17.60;100.00;94829.34;5004868;28;20271;-61
2023/08/12 01:47:58;;;;;;;1999.90;999.90;;;;;;;17.57;100.00;94801.88;5004840;28;20259;-61
2023/08/12 01:50:25;;;;;;;1999.90;999.90;;;;;;;17.50;100.00;94778.09;5004796;28;20195;-60
2023/08/12 01:52:50;;;;;;;1999.90;999.90;;;;;;;17.44;100.00;94754.34;5004752;28;20287;-61
2023/08/12 01:55:16;;;;;;;1999.90;999.90;;;;;;;17.40;100.00;94731.59;5004918;28;20210;-60
2023/08/12 01:57:41;;;;;;;1999.90;999.90;;;;;;;17.33;100.00;94709.88;5004547;28;20254;-60
2023/08/12 02:00:07;;;;;;;1999.90;999.90;;;;;;;17.27;100.00;94695.91;5004521;28;20168;-60
2023/08/12 02:02:32;;;;;;;1999.90;999.90;;;;;;;17.23;100.00;94680.75;5004654;28;20203;-61
2023/08/12 02:04:58;;;;;;;1999.90;999.90;;;;;;;17.21;100.00;94647.31;5004621;28;20195;-60
2023/08/12 02:07:23;;;;;;;1999.90;999.90;;;;;;;17.18;100.00;94621.41;5004744;28;20200;-60
2023/08/12 02:09:48;;;;;;;1999.90;999.90;;;;;;;17.16;100.00;94617.59;5004745;28;20194;-62
2023/08/12 02:12:14;;;;;;;1999.90;999.90;;;;;;;17.16;100.00;94604.56;5004518;28;20198;-60
2023/08/12 02:14:39;;;;;;;1999.90;999.90;;;;;;;17.12;100.00;94600.44;5003815;28;20235;-61
2023/08/12 02:17:05;;;;;;;1999.90;999.90;;;;;;;17.08;100.00;94595.06;5004450;28;20195;-61
2023/08/12 02:19:32;;;;;;;1999.90;999.90;;;;;;;17.04;100.00;94583.44;5004536;28;20187;-61
2023/08/12 02:21:58;;;;;;;1999.90;999.90;;;;;;;17.02;100.00;94579.59;5004612;28;20188;-61
2023/08/12 02:24:23;;;;;;;1999.90;999.90;;;;;;;16.94;100.00;94573.66;5004586;28;20230;-60
2023/08/12 02:26:49;;;;;;;1999.90;999.90;;;;;;;16.90;100.00;94561.25;5004703;28;20215;-60
2023/08/12 02:29:14;;;;;;;1999.90;999.90;;;;;;;16.80;100.00;94537.69;5004101;28;20195;-61
2023/08/12 02:31:39;;;;;;;1999.90;999.90;;;;;;;16.78;100.00;94523.59;5004956;28;20204;-61
2023/08/12 02:34:05;;;;;;;1999.90;999.90;;;;;;;16.78;100.00;94504.31;5004607;28;20214;-61
2023/08/12 02:36:30;;;;;;;1999.90;999.90;;;;;;;16.77;100.00;94488.97;5004403;28;20199;-61
2023/08/12 02:38:55;;;;;;;1999.90;999.90;;;;;;;16.76;100.00;94463.41;5004711;28;20271;-61
2023/08/12 02:41:21;;;;;;;1999.90;999.90;;;;;;;16.72;100.00;94434.47;5004078;28;20191;-61
2023/08/12 02:43:46;;;;;;;1999.90;999.90;;;;;;;16.73;100.00;94422.97;5004184;28;20267;-61
2023/08/12 02:46:12;;;;;;;1999.90;999.90;;;;;;;16.74;100.00;94410.69;5004352;28;20382;-61
2023/08/12 02:48:38;;;;;;;1999.90;999.90;;;;;;;16.73;100.00;94402.88;5004564;28;20188;-61
2023/08/12 02:51:03;;;;;;;1999.90;999.90;;;;;;;16.74;100.00;94387.88;5004289;28;20199;-61
2023/08/12 02:53:28;;;;;;;1999.90;999.90;;;;;;;16.72;100.00;94382.06;5004092;28;20207;-63
2023/08/12 02:55:54;;;;;;;1999.90;999.90;;;;;;;16.66;100.00;94383.94;5004269;28;20195;-60
2023/08/12 02:58:19;;;;;;;1999.90;999.90;;;;;;;16.64;100.00;94383.66;5004500;28;20391;-60
2023/08/12 03:00:44;;;;;;;1999.90;999.90;;;;;;;16.62;100.00;94369.53;5004250;28;20222;-60
2023/08/12 03:03:10;;;;;;;1999.90;999.90;;;;;;;16.61;100.00;94374.28;5004565;28;20211;-60
2023/08/12 03:05:35;;;;;;;1999.90;999.90;;;;;;;16.58;100.00;94385.50;5004825;28;20184;-60
2023/08/12 03:08:03;;;;;;;1999.90;999.90;;;;;;;16.56;100.00;94377.69;5003921;28;20542;-60
2023/08/12 03:10:29;;;;;;;1999.90;999.90;;;;;;;16.57;100.00;94383.97;5004053;28;20199;-60
2023/08/12 03:12:54;;;;;;;1999.90;999.90;;;;;;;16.53;100.00;94399.94;5003617;28;20211;-60
2023/08/12 03:15:20;;;;;;;1999.90;999.90;;;;;;;16.54;100.00;94395.94;5004166;28;20226;-60
2023/08/12 03:17:45;;;;;;;1999.90;999.90;;;;;;;16.53;100.00;94410.94;5003753;28;20198;-60
2023/08/12 03:20:10;;;;;;;1999.90;999.90;;;;;;;16.53;100.00;94405.44;5003913;28;20562;-60
2023/08/12 03:22:37;;;;;;;1999.90;999.90;;;;;;;16.53;100.00;94416.47;5003987;28;20199;-61
2023/08/12 03:25:03;;;;;;;1999.90;999.90;;;;;;;16.53;100.00;94416.47;5004975;28;20195;-61
2023/08/12 03:27:28;;;;;;;1999.90;999.90;;;;;;;16.52;100.00;94425.94;5008005;28;20195;-61
2023/08/12 03:29:54;;;;;;;1999.90;999.90;;;;;;;16.48;100.00;94428.88;5007769;28;20201;-61
2023/08/12 03:32:19;;;;;;;1999.90;999.90;;;;;;;16.45;100.00;94427.03;5007923;28;20179;-61
2023/08/12 03:34:44;;;;;;;1999.90;999.90;;;;;;;16.42;100.00;94423.22;5007839;28;20254;-61
2023/08/12 03:37:10;;;;;;;1999.90;999.90;;;;;;;16.42;100.00;94433.47;5007865;28;20195;-61
2023/08/12 03:39:35;;;;;;;1999.90;999.90;;;;;;;16.34;100.00;94440.53;5007867;28;20199;-61
2023/08/12 03:42:00;;;;;;;1999.90;999.90;;;;;;;16.31;100.00;94433.94;5007307;28;20222;-61
2023/08/12 03:44:26;;;;;;;1999.90;999.90;;;;;;;16.24;100.00;94428.75;5007256;28;20208;-61
2023/08/12 03:46:51;;;;;;;1999.90;999.90;;;;;;;16.24;100.00;94437.03;5007420;28;20203;-60
2023/08/12 03:49:16;;;;;;;1999.90;999.90;;;;;;;16.24;100.00;94423.25;5007883;28;20196;-61
2023/08/12 03:51:42;;;;;;;1999.90;999.90;;;;;;;16.21;100.00;94426.19;5007161;28;20200;-61
2023/08/12 03:54:07;;;;;;;1999.90;999.90;;;;;;;16.18;100.00;94419.56;5007142;28;20448;-61
2023/08/12 03:56:32;;;;;;;1999.90;999.90;;;;;;;16.12;100.00;94424.19;5006692;28;20374;-61
2023/08/12 03:58:58;;;;;;;1999.90;999.90;;;;;;;16.06;100.00;94423.28;5006995;28;20191;-61
2023/08/12 04:01:23;;;;;;;1999.90;999.90;;;;;;;16.06;100.00;94417.78;5007039;28;20259;-62
2023/08/12 04:03:50;;;;;;;1999.90;999.90;;;;;;;16.10;100.00;94407.34;5007384;28;20183;-61
2023/08/12 04:06:15;;;;;;;1999.90;999.90;;;;;;;16.09;100.00;94405.84;5007293;28;20196;-61
2023/08/12 04:08:40;;;;;;;1999.90;999.90;;;;;;;16.06;100.00;94404.00;5006755;28;20202;-61
2023/08/12 04:11:06;;;;;;;1999.90;999.90;;;;;;;16.08;100.00;94395.28;5006516;28;20226;-60
2023/08/12 04:13:31;;;;;;;1999.90;999.90;;;;;;;16.08;100.00;94398.03;5006598;28;20211;-60
2023/08/12 04:15:56;;;;;;;1999.90;999.90;;;;;;;16.15;100.00;94386.69;5006616;28;20212;-61
2023/08/12 04:18:22;;;;;;;1999.90;999.90;;;;;;;16.18;100.00;94383.75;5006686;28;20207;-60
2023/08/12 04:20:53;;;;;;;1999.90;999.90;;;;;;;16.26;100.00;94384.22;5006424;28;20196;-61
2023/08/12 04:23:19;;;;;;;1999.90;999.90;;;;;;;16.42;100.00;94373.63;5006664;28;20207;-60
2023/08/12 04:25:47;;;;;;;1999.90;999.90;;;;;;;16.60;100.00;94380.28;5006328;28;20195;-61
2023/08/12 04:28:14;;;;;;;1999.90;999.90;;;;;;;16.69;100.00;94396.78;5006575;28;20262;-61
2023/08/12 04:30:43;;;;;;;1999.90;999.90;;;;;;;16.67;100.00;94415.81;5006734;28;20191;-64
2023/08/12 04:33:08;;;;;;;1999.90;999.90;;;;;;;16.77;100.00;94440.09;5006642;28;20202;-61
2023/08/12 04:35:34;;;;;;;1999.90;999.90;;;;;;;16.87;100.00;94465.66;5006429;28;20196;-61
2023/08/12 04:37:59;;;;;;;1999.90;999.90;;;;;;;16.96;100.00;94499.47;5005594;28;20200;-61
2023/08/12 04:40:24;;;;;;;1999.90;999.90;;;;;;;17.13;100.00;94530.22;5006109;28;20230;-60
2023/08/12 04:42:50;;;;;;;1999.90;999.90;;;;;;;17.45;100.00;94560.59;5005887;28;20231;-60
2023/08/12 04:45:15;;;;;;;1999.90;999.90;;;;;;;17.59;100.00;94619.94;5005984;28;20231;-60
2023/08/12 04:47:40;;;;;;;1999.90;999.90;;;;;;;17.78;100.00;94716.03;5005877;28;20196;-61
2023/08/12 04:50:06;;;;;;;1999.90;999.90;;;;;;;17.93;100.00;94812.84;5005902;28;20270;-60
2023/08/12 04:52:32;;;;;;;1999.90;999.90;;;;;;;18.15;100.00;94893.56;5005930;28;20204;-60
2023/08/12 04:54:57;;;;;;;1999.90;999.90;;;;;;;18.39;100.00;94991.25;5005920;28;20220;-60
2023/08/12 04:57:22;;;;;;;1999.90;999.90;;;;;;;18.65;100.00;95083.72;5006307;28;20203;-57
2023/08/12 04:59:48;;;;;;;1999.90;999.90;;;;;;;19.19;100.00;95172.19;5006138;28;20400;-57
2023/08/12 05:02:13;;;;;;;1999.90;999.90;;;;;;;19.77;100.00;95300.16;5005707;28;20508;-58
2023/08/12 05:04:39;;;;;;;1999.90;999.90;;;;;;;20.23;100.00;95387.63;5006140;28;20175;-58
2023/08/12 05:07:04;;;;;;;1999.90;999.90;;;;;;;20.74;100.00;95449.47;5006033;28;20235;-57
2023/08/12 05:09:29;;;;;;;1999.90;999.90;;;;;;;21.16;100.00;95500.25;5005462;28;20196;-57
2023/08/12 05:11:55;;;;;;;1999.90;999.90;;;;;;;21.59;100.00;95527.53;5005448;28;20207;-58
2023/08/12 05:14:20;;;;;;;1999.90;999.90;;;;;;;21.94;100.00;95545.28;5005474;28;20216;-56
2023/08/12 05:16:45;;;;;;;1999.90;999.90;;;;;;;22.07;100.00;95565.28;5005536;28;20210;-57
2023/08/12 05:19:11;;;;;;;1999.90;999.90;;;;;;;22.27;100.00;95571.03;5005687;28;20191;-58
2023/08/12 05:21:36;;;;;;;1999.90;999.90;;;;;;;22.44;100.00;95577.69;5005374;28;20199;-57
2023/08/12 05:24:01;;;;;;;1999.90;999.90;;;;;;;22.77;100.00;95585.97;5005267;28;20207;-58
2023/08/12 05:26:27;;;;;;;1999.90;999.90;;;;;;;22.86;100.00;95593.47;5005394;28;20259;-58
2023/08/12 05:28:52;;;;;;;1999.90;999.90;;;;;;;23.00;100.00;95590.72;5005706;28;20255;-54
2023/08/12 05:31:17;;;;;;;1999.90;999.90;;;;;;;23.29;100.00;95601.13;5005341;28;20204;-57
2023/08/12 05:33:43;;;;;;;1999.90;999.90;;;;;;;23.49;100.00;95604.75;5005188;28;20222;-59
2023/08/12 05:36:09;;;;;;;1999.90;999.90;;;;;;;23.88;100.00;95613.75;5005190;28;20243;-56
2023/08/12 05:38:34;;;;;;;1999.90;999.90;;;;;;;24.10;100.00;95614.88;5005531;28;20196;-56
2023/08/12 05:40:59;;;;;;;1999.90;999.90;;;;;;;24.41;100.00;95617.09;5005187;28;20195;-56
2023/08/12 05:43:25;;;;;;;1999.90;999.90;;;;;;;25.08;100.00;95627.81;5004968;28;20208;-53
2023/08/12 05:45:50;;;;;;;1999.90;999.90;;;;;;;25.54;100.00;95623.00;5005074;28;20218;-56
2023/08/12 05:48:15;;;;;;;1999.90;999.90;;;;;;;26.02;100.00;95635.09;5004705;28;20195;-55
2023/08/12 05:50:41;;;;;;;1999.90;999.90;;;;;;;26.39;100.00;95635.09;5004848;28;20195;-58
2023/08/12 05:53:06;;;;;;;1999.90;999.90;;;;;;;26.72;100.00;95638.88;5005147;28;20223;-55
2023/08/12 05:55:34;;;;;;;1999.90;999.90;;;;;;;27.07;100.00;95642.06;5004929;28;20195;-51
2023/08/12 05:58:00;;;;;;;1999.90;999.90;;;;;;;27.45;100.00;95632.22;5004865;28;20270;-58
2023/08/12 06:00:25;;;;;;;1999.90;999.90;;;;;;;27.43;100.00;95632.72;5004485;28;20218;-58
2023/08/12 06:02:50;;;;;;;1999.90;999.90;;;;;;;27.57;100.00;95631.72;5004659;28;20200;-57
2023/08/12 06:05:16;;;;;;;1999.90;999.90;;;;;;;27.99;100.00;95634.34;5004512;28;20195;-59
2023/08/12 06:07:41;;;;;;;1999.90;999.90;;;;;;;28.15;100.00;95632.78;5004806;28;20180;-60
2023/08/12 06:10:07;;;;;;;1999.90;999.90;;;;;;;28.24;100.00;95633.31;5004972;28;20200;-58
2023/08/12 06:12:32;;;;;;;1999.90;999.90;;;;;;;28.96;100.00;95635.16;5004663;28;20262;-58
2023/08/12 06:14:57;;;;;;;1999.90;999.90;;;;;;;29.59;100.00;95633.06;5004308;28;20200;-58
2023/08/12 06:17:23;;;;;;;1999.90;999.90;;;;;;;29.65;100.00;95628.94;5004912;28;20196;-58
2023/08/12 06:19:48;;;;;;;1999.90;999.90;;;;;;;29.64;100.00;95632.28;5004733;28;20211;-59
2023/08/12 06:22:13;;;;;;;1999.90;999.90;;;;;;;29.16;100.00;95626.38;5004418;28;20191;-59
2023/08/12 06:24:39;;;;;;;1999.90;999.90;;;;;;;29.67;100.00;95620.72;5004166;28;20200;-58
2023/08/12 06:27:05;;;;;;;1999.90;999.90;;;;;;;30.44;100.00;95619.28;5004476;28;20267;-59
2023/08/12 06:29:30;;;;;;;1999.90;999.90;;;;;;;31.01;100.00;95621.75;5004441;28;20230;-58
2023/08/12 06:31:55;;;;;;;1999.90;999.90;;;;;;;31.53;100.00;95616.44;5004196;28;20188;-58
2023/08/12 06:34:21;;;;;;;1999.90;999.90;;;;;;;31.54;100.00;95622.84;5004211;28;20215;-57
2023/08/12 06:36:46;;;;;;;1999.90;999.90;;;;;;;31.44;100.00;95625.31;5004234;28;20210;-59
2023/08/12 06:39:11;;;;;;;1999.90;999.90;;;;;;;31.62;100.00;95621.72;5004731;28;20183;-56
2023/08/12 06:41:37;;;;;;;1999.90;999.90;;;;;;;32.57;100.00;95630.19;5004213;28;20233;-56
2023/08/12 06:44:04;;;;;;;1999.90;999.90;;;;;;;33.29;99.34;95627.44;5003815;28;20207;-54
2023/08/12 06:46:30;;;;;;;1999.90;999.90;;;;;;;34.26;87.29;95623.44;5004845;28;20274;-58
2023/08/12 06:48:56;;;;;;;1999.90;999.90;;;;;;;34.29;86.01;95625.91;5004144;28;20223;-59
2023/08/12 06:51:21;;;;;;;1999.90;999.90;;;;;;;32.82;94.77;95626.66;5004105;28;20203;-58
2023/08/12 06:53:46;;;;;;;1999.90;999.90;;;;;;;31.34;100.00;95615.69;5003998;28;20249;-59
2023/08/12 06:56:12;;;;;;;1999.90;999.90;;;;;;;29.89;100.00;95625.41;5004728;28;20242;-60
2023/08/12 06:58:37;;;;;;;1999.90;999.90;;;;;;;30.10;100.00;95613.19;5004068;28;20199;-59
2023/08/12 07:01:02;;;;;;;1999.90;999.90;;;;;;;31.01;100.00;95613.28;5006820;28;20205;-59
2023/08/12 07:03:28;;;;;;;1999.90;999.90;;;;;;;31.49;100.00;95606.75;5008040;28;20207;-58
2023/08/12 07:05:54;;;;;;;1999.90;999.90;;;;;;;32.43;100.00;95600.34;5007794;28;20195;-59
2023/08/12 07:08:19;;;;;;;1999.90;999.90;;;;;;;32.69;100.00;95606.78;5007895;28;20200;-61
2023/08/12 07:10:45;;;;;;;1999.90;999.90;;;;;;;33.63;93.70;95611.25;5007603;28;20278;-60
2023/08/12 07:13:10;;;;;;;1999.90;999.90;;;;;;;33.96;89.92;95606.13;5007903;28;20279;-59
2023/08/12 07:15:35;;;;;;;1999.90;999.90;;;;;;;34.14;87.98;95613.66;5007733;28;20206;-60
2023/08/12 07:18:01;;;;;;;1999.90;999.90;;;;;;;34.70;85.64;95610.94;5007515;28;20218;-60
2023/08/12 07:20:26;;;;;;;1999.90;999.90;;;;;;;34.58;82.22;95604.03;5007738;28;20202;-59
2023/08/12 07:22:52;;;;;;;1999.90;999.90;;;;;;;34.15;86.10;95607.44;5007618;28;20192;-60
2023/08/12 07:25:17;;;;;;;1999.90;999.90;;;;;;;35.31;81.02;95605.06;5007649;28;20199;-60
2023/08/12 07:27:42;;;;;;;1999.90;999.90;;;;;;;35.74;76.14;95607.09;5007599;28;20202;-59
2023/08/12 07:30:08;;;;;;;1999.90;999.90;;;;;;;36.23;72.08;95605.50;5007544;28;20241;-61
2023/08/12 07:32:35;;;;;;;1999.90;999.90;;;;;;;35.50;78.00;95601.94;5008000;28;20266;-61
2023/08/12 07:35:01;;;;;;;1999.90;999.90;;;;;;;35.49;79.53;95598.31;5007292;28;20200;-61
2023/08/12 07:37:26;;;;;;;1999.90;999.90;;;;;;;35.31;79.31;95601.47;5007191;28;20196;-63
2023/08/12 07:39:51;;;;;;;1999.90;999.90;;;;;;;35.25;78.93;95600.84;5007475;28;20195;-60
2023/08/12 07:42:17;;;;;;;1999.90;999.90;;;;;;;35.75;77.26;95600.09;5007460;28;20195;-60
2023/08/12 07:44:42;;;;;;;1999.90;999.90;;;;;;;35.63;78.16;95593.25;5007030;28;20199;-59
2023/08/12 07:47:09;;;;;;;1999.90;999.90;;;;;;;35.99;78.27;95591.06;5007308;28;20206;-59
2023/08/12 07:49:34;;;;;;;1999.90;999.90;;;;;;;36.64;72.55;95593.00;5007304;28;20205;-62
2023/08/12 07:52:00;;;;;;;1999.90;999.90;;;;;;;36.94;74.08;95595.81;5007186;28;20271;-61
2023/08/12 07:54:25;;;;;;;1999.90;999.90;;;;;;;37.57;66.81;95608.72;5006755;28;20217;-60
2023/08/12 07:56:52;;;;;;;1999.90;999.90;;;;;;;36.68;70.94;95599.81;5006883;28;20245;-60
2023/08/12 07:59:17;;;;;;;1999.90;999.90;;;;;;;37.01;71.99;95595.03;5007169;28;20202;-60
2023/08/12 08:01:42;;;;;;;1999.90;999.90;;;;;;;37.03;72.43;95603.75;5006955;28;20199;-60
2023/08/12 08:04:08;;;;;;;1999.90;999.90;;;;;;;37.93;66.92;95599.78;5006718;28;20206;-61
2023/08/12 08:06:33;;;;;;;1999.90;999.90;;;;;;;37.96;65.00;95602.25;5006925;28;20199;-60
2023/08/12 08:09:00;;;;;;;1999.90;999.90;;;;;;;38.09;63.99;95607.69;5006858;28;20211;-61
2023/08/12 08:11:25;;;;;;;1999.90;999.90;;;;;;;37.29;70.90;95611.13;5005221;28;20226;-59
2023/08/12 08:13:51;;;;;;;1999.90;999.90;;;;;;;36.34;71.05;95602.31;5006894;28;20216;-60
2023/08/12 08:16:16;;;;;;;1999.90;999.90;;;;;;;36.90;69.30;95589.75;5006976;28;20306;-60
2023/08/12 08:18:42;;;;;;;1999.90;999.90;;;;;;;37.33;66.68;95597.25;5007006;28;20207;-61
2023/08/12 08:21:07;;;;;;;1999.90;999.90;;;;;;;37.59;66.08;95591.78;5006499;28;20258;-61
2023/08/12 08:23:32;;;;;;;1999.90;999.90;;;;;;;36.63;66.61;95597.94;5006580;28;20206;-60
2023/08/12 08:25:57;;;;;;;1999.90;999.90;;;;;;;37.38;62.81;95591.31;5006348;28;20203;-60
2023/08/12 08:28:23;;;;;;;1999.90;999.90;;;;;;;37.93;62.81;95592.00;5006309;28;20275;-61
2023/08/12 08:30:48;;;;;;;1999.90;999.90;;;;;;;38.54;61.29;95592.34;5006377;28;20199;-61
2023/08/12 08:33:14;;;;;;;1999.90;999.90;;;;;;;38.38;59.01;95593.81;5006163;28;20216;-60
2023/08/12 08:35:39;;;;;;;1999.90;999.90;;;;;;;39.78;56.12;95594.25;5006370;28;20251;-59
2023/08/12 08:38:04;;;;;;;1999.90;999.90;;;;;;;39.74;55.29;95591.03;5006314;28;20200;-60
2023/08/12 08:40:30;;;;;;;1999.90;999.90;;;;;;;39.59;56.98;95593.34;5006028;28;20200;-62
2023/08/12 08:43:01;;;;;;;1999.90;999.90;;;;;;;39.49;54.30;95601.09;5005928;28;20195;-60
2023/08/12 08:45:29;;;;;;;1999.90;999.90;;;;;;;40.58;51.84;95599.91;5006394;28;20227;-61
2023/08/12 08:47:55;;;;;;;1999.90;999.90;;;;;;;40.28;52.62;95600.41;5006174;28;20203;-60
2023/08/12 08:50:21;;;;;;;1999.90;999.90;;;;;;;39.41;54.23;95600.44;5006288;28;20202;-59
2023/08/12 08:52:48;;;;;;;1999.90;999.90;;;;;;;39.68;55.74;95606.97;5005529;28;20259;-60
2023/08/12 08:55:14;;;;;;;1999.90;999.90;;;;;;;39.43;56.32;95603.47;5005765;28;20227;-60
2023/08/12 08:57:43;;;;;;;1999.90;999.90;;;;;;;39.67;56.01;95602.56;5005720;28;20207;-62
2023/08/12 09:00:09;;;;;;;1999.90;999.90;;;;;;;40.21;53.95;95604.16;5006001;28;20202;-62
2023/08/12 09:02:35;;;;;;;1999.90;999.90;;;;;;;39.66;58.06;95610.44;5005914;28;20194;-62
2023/08/12 09:05:02;;;;;;;1999.90;999.90;;;;;;;38.98;58.64;95605.47;5005399;28;20192;-62
2023/08/12 09:07:27;;;;;;;1999.90;999.90;;;;;;;38.48;61.41;95601.13;5005838;28;20231;-62
2023/08/12 09:09:54;;;;;;;1999.90;999.90;;;;;;;38.03;64.06;95592.88;5005885;28;20208;-63
2023/08/12 09:12:21;;;;;;;1999.90;999.90;;;;;;;37.77;66.93;95596.28;5005586;28;20196;-62
2023/08/12 09:14:46;;;;;;;1999.90;999.90;;;;;;;37.17;66.47;95599.38;5005758;28;20227;-63
2023/08/12 09:17:11;;;;;;;1999.90;999.90;;;;;;;36.35;72.48;95600.22;5005785;28;20275;-61
2023/08/12 09:19:37;;;;;;;1999.90;999.90;;;;;;;36.31;73.03;95602.69;5005830;28;20196;-64
2023/08/12 09:22:08;;;;;;;1999.90;999.90;;;;;;;36.25;73.82;95591.50;5005321;28;20203;-60
2023/08/12 09:24:34;;;;;;;1999.90;999.90;;;;;;;36.25;73.54;95602.13;5005031;28;20274;-63
2023/08/12 09:26:59;;;;;;;1999.90;999.90;;;;;;;35.88;74.94;95597.13;5005239;28;20203;-63
2023/08/12 09:29:35;;;;;;;1999.90;999.90;;;;;;;35.51;80.20;95598.50;5005032;28;20222;-62
2023/08/12 09:32:17;;;;;;;1999.90;999.90;;;;;;;35.66;79.45;95607.09;5005241;28;20233;-65
2023/08/12 09:35:03;;;;;;;1999.90;999.90;;;;;;;36.05;75.64;95605.88;5005106;28;20203;-62
2023/08/12 09:37:28;;;;;;;1999.90;999.90;;;;;;;36.19;74.05;95604.34;5004896;28;20199;-62
2023/08/12 09:39:53;;;;;;;1999.90;999.90;;;;;;;37.45;70.95;95599.09;5004948;28;20196;-64
2023/08/12 09:42:19;;;;;;;1999.90;999.90;;;;;;;38.18;67.21;95598.53;5004716;28;20276;-62
2023/08/12 09:44:44;;;;;;;1999.90;999.90;;;;;;;38.36;62.44;95605.81;5004938;28;20203;-61
2023/08/12 09:47:10;;;;;;;1999.90;999.90;;;;;;;38.22;62.53;95609.53;5004902;28;20196;-63
2023/08/12 09:49:37;;;;;;;1999.90;999.90;;;;;;;37.68;64.50;95605.47;5004757;28;20192;-62
2023/08/12 09:52:07;;;;;;;1999.90;999.90;;;;;;;36.63;67.72;95610.66;5005055;28;20222;-61
2023/08/12 09:54:33;;;;;;;1999.90;999.90;;;;;;;35.85;72.67;95603.94;5004558;28;20287;-61
2023/08/12 09:57:00;;;;;;;1999.90;999.90;;;;;;;35.73;77.50;95599.91;5005171;28;20192;-62
2023/08/12 09:59:31;;;;;;;1999.90;999.90;;;;;;;35.09;81.49;95602.84;5004484;28;20234;-61
2023/08/12 10:01:57;;;;;;;1999.90;999.90;;;;;;;34.83;88.47;95608.78;5004471;28;20271;-61
2023/08/12 10:04:26;;;;;;;1999.90;999.90;;;;;;;34.38;90.61;95602.00;5005081;28;20266;-60
2023/08/12 10:06:52;;;;;;;1999.90;999.90;;;;;;;33.89;98.02;95595.50;5004756;28;20286;-61
2023/08/12 10:09:21;;;;;;;1999.90;999.90;;;;;;;34.22;96.98;95589.72;5004584;28;20196;-59
2023/08/12 10:11:47;;;;;;;1999.90;999.90;;;;;;;34.15;93.96;95590.41;5004492;28;20200;-60
2023/08/12 10:14:14;;;;;;;1999.90;999.90;;;;;;;34.34;93.14;95587.41;5004342;28;20239;-59
2023/08/12 10:16:44;;;;;;;1999.90;999.90;;;;;;;34.67;89.94;95589.34;5004544;28;20234;-61
2023/08/12 10:19:11;;;;;;;1999.90;999.90;;;;;;;35.06;85.97;95589.78;5004234;28;20217;-60
2023/08/12 10:21:37;;;;;;;1999.90;999.90;;;;;;;34.91;84.63;95586.09;5004057;28;20271;-60
2023/08/12 10:24:04;;;;;;;1999.90;999.90;;;;;;;35.56;83.74;95588.28;5004414;28;20196;-60
2023/08/12 10:26:30;;;;;;;1999.90;999.90;;;;;;;36.31;78.87;95585.63;5003883;28;20183;-59
2023/08/12 10:28:56;;;;;;;1999.90;999.90;;;;;;;35.65;78.75;95591.34;5004572;28;20196;-60
2023/08/12 10:31:22;;;;;;;1999.90;999.90;;;;;;;35.18;85.25;95595.91;5004270;28;20195;-59
2023/08/12 10:33:49;;;;;;;1999.90;999.90;;;;;;;35.74;83.07;95587.19;5004368;28;20211;-61
2023/08/12 10:36:15;;;;;;;1999.90;999.90;;;;;;;35.61;82.56;95588.13;5003867;28;20203;-60
2023/08/12 10:38:41;;;;;;;1999.90;999.90;;;;;;;36.15;79.64;95587.66;5004265;28;20199;-60
2023/08/12 10:41:15;;;;;;;1999.90;999.90;;;;;;;35.27;80.01;95586.81;5004129;28;20255;-60
2023/08/12 10:44:01;;;;;;;1999.90;999.90;;;;;;;36.85;74.01;95593.53;5004055;28;20218;-60
2023/08/12 10:46:36;;;;;;;1999.90;999.90;;;;;;;37.49;71.02;95596.59;5004324;28;20199;-59